sensor_id;sensor_type;location;lat;lon;timestamp;pressure;altitude;pressure_sealevel;temperature;humidity
65997;BME280;52765;52.258;21.052;2023-05-29T00:00:26;100952.72;;;14.52;60.14
65997;BME280;52765;52.258;21.052;2023-05-29T00:02:52;100948.81;;;14.47;60.28
65997;BME280;52765;52.258;21.052;2023-05-29T00:05:18;100949.13;;;14.43;60.36
65997;BME280;52765;52.258;21.052;2023-05-29T00:07:43;100952.03;;;14.42;60.82
65997;BME280;52765;52.258;21.052;2023-05-29T00:10:11;100946.09;;;14.38;61.45
65997;BME280;52765;52.258;21.052;2023-05-29T00:12:37;100944.91;;;14.33;61.52
65997;BME280;52765;52.258;21.052;2023-05-29T00:15:04;100940.81;;;14.29;61.58
65997;BME280;52765;52.258;21.052;2023-05-29T00:17:30;100938.63;;;14.24;61.93
65997;BME280;52765;52.258;21.052;2023-05-29T00:19:59;100948.59;;;14.23;62.21
65997;BME280;52765;52.258;21.052;2023-05-29T00:22:27;100933.72;;;14.19;62.00
65997;BME280;52765;52.258;21.052;2023-05-29T00:24:53;100937.75;;;14.15;62.38
65997;BME280;52765;52.258;21.052;2023-05-29T00:27:19;100933.00;;;14.09;63.09
65997;BME280;52765;52.258;21.052;2023-05-29T00:29:45;100933.81;;;14.01;63.35
65997;BME280;52765;52.258;21.052;2023-05-29T00:32:11;100942.28;;;13.98;63.85
65997;BME280;52765;52.258;21.052;2023-05-29T00:34:37;100937.72;;;13.91;64.60
65997;BME280;52765;52.258;21.052;2023-05-29T00:37:02;100943.44;;;13.87;64.85
65997;BME280;52765;52.258;21.052;2023-05-29T00:39:28;100937.31;;;13.85;64.76
65997;BME280;52765;52.258;21.052;2023-05-29T00:41:54;100942.22;;;13.82;65.28
65997;BME280;52765;52.258;21.052;2023-05-29T00:44:21;100942.38;;;13.80;65.66
65997;BME280;52765;52.258;21.052;2023-05-29T00:46:48;100944.25;;;13.80;66.08
65997;BME280;52765;52.258;21.052;2023-05-29T00:49:16;100939.00;;;13.78;66.33
65997;BME280;52765;52.258;21.052;2023-05-29T00:51:43;100935.63;;;13.76;66.29
65997;BME280;52765;52.258;21.052;2023-05-29T00:54:11;100944.41;;;13.78;66.73
65997;BME280;52765;52.258;21.052;2023-05-29T00:56:41;100949.00;;;13.78;67.05
65997;BME280;52765;52.258;21.052;2023-05-29T00:59:11;100943.91;;;13.75;67.41
65997;BME280;52765;52.258;21.052;2023-05-29T01:01:38;100936.56;;;13.67;67.94
65997;BME280;52765;52.258;21.052;2023-05-29T01:04:05;100940.13;;;13.59;68.61
65997;BME280;52765;52.258;21.052;2023-05-29T01:06:37;100941.63;;;13.62;69.59
65997;BME280;52765;52.258;21.052;2023-05-29T01:09:03;100939.09;;;13.60;69.34
65997;BME280;52765;52.258;21.052;2023-05-29T01:19:45;100939.22;;;13.50;70.10
65997;BME280;52765;52.258;21.052;2023-05-29T01:22:26;100932.06;;;13.41;70.91
65997;BME280;52765;52.258;21.052;2023-05-29T01:27:41;100935.03;;;13.30;70.26
65997;BME280;52765;52.258;21.052;2023-05-29T01:30:11;100937.03;;;13.28;70.71
65997;BME280;52765;52.258;21.052;2023-05-29T01:32:39;100931.59;;;13.20;70.96
65997;BME280;52765;52.258;21.052;2023-05-29T01:35:07;100933.44;;;13.19;71.17
65997;BME280;52765;52.258;21.052;2023-05-29T01:37:32;100930.44;;;13.22;71.09
65997;BME280;52765;52.258;21.052;2023-05-29T01:39:59;100935.66;;;13.24;71.21
65997;BME280;52765;52.258;21.052;2023-05-29T01:42:26;100933.81;;;13.24;71.43
65997;BME280;52765;52.258;21.052;2023-05-29T01:44:53;100936.31;;;13.18;72.13
65997;BME280;52765;52.258;21.052;2023-05-29T01:47:19;100937.16;;;13.18;72.57
65997;BME280;52765;52.258;21.052;2023-05-29T01:49:47;100935.13;;;13.20;72.64
65997;BME280;52765;52.258;21.052;2023-05-29T01:52:14;100933.59;;;13.18;72.92
65997;BME280;52765;52.258;21.052;2023-05-29T01:54:39;100938.84;;;13.19;72.87
65997;BME280;52765;52.258;21.052;2023-05-29T01:57:05;100936.63;;;13.14;72.94
65997;BME280;52765;52.258;21.052;2023-05-29T01:59:32;100930.38;;;13.14;73.16
65997;BME280;52765;52.258;21.052;2023-05-29T02:02:05;100937.16;;;13.18;73.33
65997;BME280;52765;52.258;21.052;2023-05-29T02:04:31;100933.06;;;13.14;74.02
65997;BME280;52765;52.258;21.052;2023-05-29T02:06:56;100935.06;;;13.12;74.08
65997;BME280;52765;52.258;21.052;2023-05-29T02:09:25;100931.84;;;13.08;73.72
65997;BME280;52765;52.258;21.052;2023-05-29T02:11:51;100920.66;;;13.03;73.96
65997;BME280;52765;52.258;21.052;2023-05-29T02:14:16;100913.50;;;12.94;74.49
65997;BME280;52765;52.258;21.052;2023-05-29T02:16:42;100913.81;;;12.91;75.11
65997;BME280;52765;52.258;21.052;2023-05-29T02:19:09;100912.28;;;12.88;75.02
65997;BME280;52765;52.258;21.052;2023-05-29T02:21:39;100916.69;;;12.89;75.20
65997;BME280;52765;52.258;21.052;2023-05-29T02:24:05;100912.38;;;12.78;75.52
65997;BME280;52765;52.258;21.052;2023-05-29T02:26:31;100916.25;;;12.76;76.15
65997;BME280;52765;52.258;21.052;2023-05-29T02:28:57;100907.75;;;12.71;76.24
65997;BME280;52765;52.258;21.052;2023-05-29T02:31:23;100909.13;;;12.75;76.71
65997;BME280;52765;52.258;21.052;2023-05-29T02:33:48;100908.28;;;12.74;76.56
65997;BME280;52765;52.258;21.052;2023-05-29T02:36:14;100905.53;;;12.66;76.66
65997;BME280;52765;52.258;21.052;2023-05-29T02:38:41;100902.28;;;12.63;76.39
65997;BME280;52765;52.258;21.052;2023-05-29T02:41:07;100909.31;;;12.55;76.67
65997;BME280;52765;52.258;21.052;2023-05-29T02:43:32;100904.84;;;12.46;76.67
65997;BME280;52765;52.258;21.052;2023-05-29T02:45:58;100907.34;;;12.39;77.26
65997;BME280;52765;52.258;21.052;2023-05-29T02:48:24;100902.69;;;12.32;77.72
65997;BME280;52765;52.258;21.052;2023-05-29T02:50:51;100900.13;;;12.30;77.67
65997;BME280;52765;52.258;21.052;2023-05-29T02:53:16;100900.44;;;12.27;77.49
65997;BME280;52765;52.258;21.052;2023-05-29T02:55:42;100902.47;;;12.25;77.78
65997;BME280;52765;52.258;21.052;2023-05-29T02:58:08;100904.63;;;12.21;78.38
65997;BME280;52765;52.258;21.052;2023-05-29T03:00:33;100910.03;;;12.21;78.16
65997;BME280;52765;52.258;21.052;2023-05-29T03:03:00;100909.41;;;12.28;78.17
65997;BME280;52765;52.258;21.052;2023-05-29T03:05:25;100909.72;;;12.25;78.05
65997;BME280;52765;52.258;21.052;2023-05-29T03:07:51;100903.63;;;12.23;78.25
65997;BME280;52765;52.258;21.052;2023-05-29T03:10:16;100907.88;;;12.25;78.46
65997;BME280;52765;52.258;21.052;2023-05-29T03:12:46;100915.34;;;12.31;78.34
65997;BME280;52765;52.258;21.052;2023-05-29T03:15:11;100907.34;;;12.39;78.31
65997;BME280;52765;52.258;21.052;2023-05-29T03:17:37;100914.41;;;12.40;78.88
65997;BME280;52765;52.258;21.052;2023-05-29T03:20:04;100914.09;;;12.44;78.55
65997;BME280;52765;52.258;21.052;2023-05-29T03:22:34;100911.94;;;12.47;78.44
65997;BME280;52765;52.258;21.052;2023-05-29T03:25:02;100908.25;;;12.48;78.32
65997;BME280;52765;52.258;21.052;2023-05-29T03:27:28;100918.06;;;12.49;77.93
65997;BME280;52765;52.258;21.052;2023-05-29T03:29:54;100919.44;;;12.53;77.97
65997;BME280;52765;52.258;21.052;2023-05-29T03:32:20;100928.94;;;12.57;77.74
65997;BME280;52765;52.258;21.052;2023-05-29T03:34:46;100925.22;;;12.58;78.37
65997;BME280;52765;52.258;21.052;2023-05-29T03:37:13;100926.53;;;12.54;77.15
65997;BME280;52765;52.258;21.052;2023-05-29T03:39:38;100920.47;;;12.52;76.42
65997;BME280;52765;52.258;21.052;2023-05-29T03:42:04;100926.16;;;12.49;76.44
65997;BME280;52765;52.258;21.052;2023-05-29T03:44:30;100926.63;;;12.45;76.38
65997;BME280;52765;52.258;21.052;2023-05-29T03:46:55;100923.78;;;12.46;76.14
65997;BME280;52765;52.258;21.052;2023-05-29T03:49:21;100931.03;;;12.46;75.99
65997;BME280;52765;52.258;21.052;2023-05-29T03:51:46;100926.16;;;12.49;76.19
65997;BME280;52765;52.258;21.052;2023-05-29T03:54:12;100928.72;;;12.51;76.25
65997;BME280;52765;52.258;21.052;2023-05-29T03:56:38;100937.34;;;12.54;76.02
65997;BME280;52765;52.258;21.052;2023-05-29T03:59:03;100933.47;;;12.57;76.13
65997;BME280;52765;52.258;21.052;2023-05-29T04:01:29;100934.88;;;12.61;75.86
65997;BME280;52765;52.258;21.052;2023-05-29T04:03:55;100933.41;;;12.67;75.56
65997;BME280;52765;52.258;21.052;2023-05-29T04:06:20;100934.06;;;12.69;74.91
65997;BME280;52765;52.258;21.052;2023-05-29T04:08:47;100936.16;;;12.75;74.49
65997;BME280;52765;52.258;21.052;2023-05-29T04:11:13;100941.63;;;12.83;74.14
65997;BME280;52765;52.258;21.052;2023-05-29T04:13:39;100945.41;;;12.90;73.52
65997;BME280;52765;52.258;21.052;2023-05-29T04:16:05;100944.47;;;13.00;73.37
65997;BME280;52765;52.258;21.052;2023-05-29T04:18:31;100935.88;;;13.04;73.15
65997;BME280;52765;52.258;21.052;2023-05-29T04:20:56;100942.03;;;13.14;73.00
65997;BME280;52765;52.258;21.052;2023-05-29T04:23:22;100946.16;;;13.27;72.87
65997;BME280;52765;52.258;21.052;2023-05-29T04:25:48;100948.63;;;13.38;72.32
65997;BME280;52765;52.258;21.052;2023-05-29T04:28:16;100946.13;;;13.45;72.26
65997;BME280;52765;52.258;21.052;2023-05-29T04:30:44;100942.63;;;13.53;71.72
65997;BME280;52765;52.258;21.052;2023-05-29T04:33:10;100947.38;;;13.59;71.45
65997;BME280;52765;52.258;21.052;2023-05-29T04:35:38;100946.03;;;13.63;70.79
65997;BME280;52765;52.258;21.052;2023-05-29T04:38:03;100941.66;;;13.70;70.34
65997;BME280;52765;52.258;21.052;2023-05-29T04:40:30;100930.69;;;13.72;69.76
65997;BME280;52765;52.258;21.052;2023-05-29T04:42:57;100951.06;;;13.84;69.07
65997;BME280;52765;52.258;21.052;2023-05-29T04:45:25;100947.19;;;13.95;68.39
65997;BME280;52765;52.258;21.052;2023-05-29T04:47:51;100949.91;;;14.03;67.78
65997;BME280;52765;52.258;21.052;2023-05-29T04:50:17;100956.03;;;14.13;67.30
65997;BME280;52765;52.258;21.052;2023-05-29T04:52:47;100953.34;;;14.21;66.90
65997;BME280;52765;52.258;21.052;2023-05-29T04:55:12;100941.84;;;14.28;66.50
65997;BME280;52765;52.258;21.052;2023-05-29T04:57:38;100938.44;;;14.34;65.75
65997;BME280;52765;52.258;21.052;2023-05-29T05:00:04;100940.19;;;14.43;65.06
65997;BME280;52765;52.258;21.052;2023-05-29T05:02:37;100949.00;;;14.53;64.26
65997;BME280;52765;52.258;21.052;2023-05-29T05:05:03;100940.88;;;14.61;63.30
65997;BME280;52765;52.258;21.052;2023-05-29T05:07:28;100939.88;;;14.71;62.55
65997;BME280;52765;52.258;21.052;2023-05-29T05:09:54;100944.28;;;14.80;61.14
65997;BME280;52765;52.258;21.052;2023-05-29T05:12:20;100937.69;;;14.91;60.08
65997;BME280;52765;52.258;21.052;2023-05-29T05:14:46;100929.38;;;15.01;59.08
65997;BME280;52765;52.258;21.052;2023-05-29T05:17:12;100928.31;;;15.10;58.27
65997;BME280;52765;52.258;21.052;2023-05-29T05:19:37;100933.56;;;15.20;58.08
65997;BME280;52765;52.258;21.052;2023-05-29T05:22:03;100936.91;;;15.30;58.11
65997;BME280;52765;52.258;21.052;2023-05-29T05:24:28;100944.88;;;15.40;57.87
65997;BME280;52765;52.258;21.052;2023-05-29T05:26:54;100934.66;;;15.50;57.85
65997;BME280;52765;52.258;21.052;2023-05-29T05:29:19;100932.41;;;15.62;57.46
65997;BME280;52765;52.258;21.052;2023-05-29T05:31:45;100935.75;;;15.72;57.34
65997;BME280;52765;52.258;21.052;2023-05-29T05:34:10;100942.03;;;15.81;57.36
65997;BME280;52765;52.258;21.052;2023-05-29T05:36:36;100933.84;;;15.89;56.66
65997;BME280;52765;52.258;21.052;2023-05-29T05:39:02;100930.72;;;16.00;56.31
65997;BME280;52765;52.258;21.052;2023-05-29T05:41:28;100932.72;;;16.06;55.85
65997;BME280;52765;52.258;21.052;2023-05-29T05:43:53;100931.66;;;16.16;55.71
65997;BME280;52765;52.258;21.052;2023-05-29T05:46:19;100941.63;;;16.23;55.44
65997;BME280;52765;52.258;21.052;2023-05-29T05:48:44;100928.72;;;16.25;55.27
65997;BME280;52765;52.258;21.052;2023-05-29T05:51:10;100934.41;;;16.39;55.07
65997;BME280;52765;52.258;21.052;2023-05-29T05:53:36;100942.88;;;16.44;54.52
65997;BME280;52765;52.258;21.052;2023-05-29T05:56:02;100933.59;;;16.53;54.15
65997;BME280;52765;52.258;21.052;2023-05-29T05:58:28;100936.44;;;16.60;53.69
65997;BME280;52765;52.258;21.052;2023-05-29T06:00:53;100935.72;;;16.66;53.20
65997;BME280;52765;52.258;21.052;2023-05-29T06:03:19;100946.16;;;16.77;53.24
65997;BME280;52765;52.258;21.052;2023-05-29T06:05:44;100942.03;;;16.81;52.23
65997;BME280;52765;52.258;21.052;2023-05-29T06:08:10;100948.69;;;16.87;52.02
65997;BME280;52765;52.258;21.052;2023-05-29T06:10:35;100941.63;;;16.93;51.60
65997;BME280;52765;52.258;21.052;2023-05-29T06:13:01;100938.00;;;17.00;51.22
65997;BME280;52765;52.258;21.052;2023-05-29T06:15:27;100932.78;;;17.14;50.84
65997;BME280;52765;52.258;21.052;2023-05-29T06:17:52;100942.34;;;17.25;50.36
65997;BME280;52765;52.258;21.052;2023-05-29T06:20:20;100929.47;;;17.33;49.85
65997;BME280;52765;52.258;21.052;2023-05-29T06:22:46;100934.84;;;17.42;49.84
65997;BME280;52765;52.258;21.052;2023-05-29T06:25:16;100936.63;;;17.49;49.32
65997;BME280;52765;52.258;21.052;2023-05-29T06:27:42;100937.56;;;17.56;48.97
65997;BME280;52765;52.258;21.052;2023-05-29T06:30:08;100937.28;;;17.66;48.57
65997;BME280;52765;52.258;21.052;2023-05-29T06:32:34;100940.28;;;17.71;48.35
65997;BME280;52765;52.258;21.052;2023-05-29T06:34:59;100934.06;;;17.78;48.15
65997;BME280;52765;52.258;21.052;2023-05-29T06:37:25;100928.50;;;17.86;48.05
65997;BME280;52765;52.258;21.052;2023-05-29T06:39:50;100932.66;;;17.97;47.43
65997;BME280;52765;52.258;21.052;2023-05-29T06:42:16;100939.69;;;18.06;46.96
65997;BME280;52765;52.258;21.052;2023-05-29T06:44:41;100924.44;;;18.11;46.24
65997;BME280;52765;52.258;21.052;2023-05-29T06:47:07;100928.09;;;18.19;46.27
65997;BME280;52765;52.258;21.052;2023-05-29T06:49:32;100925.44;;;18.25;45.30
65997;BME280;52765;52.258;21.052;2023-05-29T06:51:58;100931.81;;;18.33;44.26
65997;BME280;52765;52.258;21.052;2023-05-29T06:54:23;100922.19;;;18.37;44.01
65997;BME280;52765;52.258;21.052;2023-05-29T06:56:49;100928.56;;;18.44;44.06
65997;BME280;52765;52.258;21.052;2023-05-29T06:59:14;100921.84;;;18.46;43.51
65997;BME280;52765;52.258;21.052;2023-05-29T07:01:40;100925.78;;;18.59;42.95
65997;BME280;52765;52.258;21.052;2023-05-29T07:04:05;100929.84;;;18.70;42.48
65997;BME280;52765;52.258;21.052;2023-05-29T07:06:32;100929.25;;;18.74;42.33
65997;BME280;52765;52.258;21.052;2023-05-29T07:08:59;100931.00;;;18.82;42.75
65997;BME280;52765;52.258;21.052;2023-05-29T07:11:24;100930.44;;;18.86;42.29
65997;BME280;52765;52.258;21.052;2023-05-29T07:13:53;100938.28;;;18.96;42.02
65997;BME280;52765;52.258;21.052;2023-05-29T07:16:20;100947.59;;;19.02;41.65
65997;BME280;52765;52.258;21.052;2023-05-29T07:18:45;100934.81;;;19.09;41.21
65997;BME280;52765;52.258;21.052;2023-05-29T07:21:11;100939.69;;;19.14;40.75
65997;BME280;52765;52.258;21.052;2023-05-29T07:23:54;100939.28;;;19.17;40.23
65997;BME280;52765;52.258;21.052;2023-05-29T07:26:20;100937.69;;;19.29;39.98
65997;BME280;52765;52.258;21.052;2023-05-29T07:28:48;100936.28;;;19.40;39.94
65997;BME280;52765;52.258;21.052;2023-05-29T07:31:14;100936.56;;;19.52;40.23
65997;BME280;52765;52.258;21.052;2023-05-29T07:33:40;100946.91;;;19.63;40.45
65997;BME280;52765;52.258;21.052;2023-05-29T07:36:06;100937.91;;;19.69;39.95
65997;BME280;52765;52.258;21.052;2023-05-29T07:38:32;100949.75;;;19.76;39.20
65997;BME280;52765;52.258;21.052;2023-05-29T07:40:58;100936.97;;;19.84;38.44
65997;BME280;52765;52.258;21.052;2023-05-29T07:43:23;100934.88;;;19.86;37.72
65997;BME280;52765;52.258;21.052;2023-05-29T07:45:49;100935.50;;;19.88;37.95
65997;BME280;52765;52.258;21.052;2023-05-29T07:48:14;100941.81;;;19.88;38.36
65997;BME280;52765;52.258;21.052;2023-05-29T07:50:42;100943.94;;;19.93;38.02
65997;BME280;52765;52.258;21.052;2023-05-29T07:53:08;100934.72;;;20.01;37.99
65997;BME280;52765;52.258;21.052;2023-05-29T07:55:34;100942.09;;;20.00;36.63
65997;BME280;52765;52.258;21.052;2023-05-29T07:58:00;100941.25;;;20.06;36.91
65997;BME280;52765;52.258;21.052;2023-05-29T08:00:27;100947.59;;;20.13;36.46
65997;BME280;52765;52.258;21.052;2023-05-29T08:02:53;100936.41;;;20.08;36.72
65997;BME280;52765;52.258;21.052;2023-05-29T08:05:19;100938.97;;;20.17;36.21
65997;BME280;52765;52.258;21.052;2023-05-29T08:07:44;100945.50;;;20.22;36.49
65997;BME280;52765;52.258;21.052;2023-05-29T08:10:10;100939.44;;;20.33;36.74
65997;BME280;52765;52.258;21.052;2023-05-29T08:12:35;100944.50;;;20.50;37.00
65997;BME280;52765;52.258;21.052;2023-05-29T08:15:02;100937.59;;;20.61;36.49
65997;BME280;52765;52.258;21.052;2023-05-29T08:17:27;100934.06;;;20.67;35.17
65997;BME280;52765;52.258;21.052;2023-05-29T08:19:53;100937.41;;;20.69;35.51
65997;BME280;52765;52.258;21.052;2023-05-29T08:22:19;100933.63;;;20.77;35.69
65997;BME280;52765;52.258;21.052;2023-05-29T08:24:44;100935.09;;;20.79;34.82
65997;BME280;52765;52.258;21.052;2023-05-29T08:27:10;100930.25;;;20.81;35.25
65997;BME280;52765;52.258;21.052;2023-05-29T08:29:35;100938.25;;;20.83;35.57
65997;BME280;52765;52.258;21.052;2023-05-29T08:32:02;100935.31;;;20.84;35.75
65997;BME280;52765;52.258;21.052;2023-05-29T08:34:27;100941.00;;;20.83;35.77
65997;BME280;52765;52.258;21.052;2023-05-29T08:36:53;100941.19;;;20.81;35.35
65997;BME280;52765;52.258;21.052;2023-05-29T08:39:20;100931.72;;;20.91;35.45
65997;BME280;52765;52.258;21.052;2023-05-29T08:42:07;100939.13;;;20.97;35.68
65997;BME280;52765;52.258;21.052;2023-05-29T08:44:39;100945.84;;;21.01;35.73
65997;BME280;52765;52.258;21.052;2023-05-29T08:47:07;100939.53;;;21.07;35.52
65997;BME280;52765;52.258;21.052;2023-05-29T08:49:41;100939.94;;;21.17;35.52
65997;BME280;52765;52.258;21.052;2023-05-29T08:52:21;100944.97;;;21.27;34.97
65997;BME280;52765;52.258;21.052;2023-05-29T08:54:47;100943.06;;;21.28;34.71
65997;BME280;52765;52.258;21.052;2023-05-29T08:57:13;100942.22;;;21.34;34.91
65997;BME280;52765;52.258;21.052;2023-05-29T08:59:41;100934.00;;;21.34;34.69
65997;BME280;52765;52.258;21.052;2023-05-29T09:02:07;100935.06;;;21.33;34.13
65997;BME280;52765;52.258;21.052;2023-05-29T09:04:33;100934.44;;;21.31;34.23
65997;BME280;52765;52.258;21.052;2023-05-29T09:06:59;100930.41;;;21.33;34.42
65997;BME280;52765;52.258;21.052;2023-05-29T09:09:29;100918.81;;;21.38;34.22
65997;BME280;52765;52.258;21.052;2023-05-29T09:11:56;100925.97;;;21.46;34.28
65997;BME280;52765;52.258;21.052;2023-05-29T09:14:44;100930.41;;;21.60;33.62
65997;BME280;52765;52.258;21.052;2023-05-29T09:17:13;100928.06;;;21.64;33.85
65997;BME280;52765;52.258;21.052;2023-05-29T09:19:41;100924.88;;;21.67;33.64
65997;BME280;52765;52.258;21.052;2023-05-29T09:22:12;100922.16;;;21.67;33.79
65997;BME280;52765;52.258;21.052;2023-05-29T09:24:45;100922.59;;;21.57;33.57
65997;BME280;52765;52.258;21.052;2023-05-29T09:27:11;100920.50;;;21.39;33.75
65997;BME280;52765;52.258;21.052;2023-05-29T09:29:40;100920.91;;;21.49;33.97
65997;BME280;52765;52.258;21.052;2023-05-29T09:32:16;100921.72;;;21.63;33.77
65997;BME280;52765;52.258;21.052;2023-05-29T09:34:45;100926.31;;;21.76;33.74
65997;BME280;52765;52.258;21.052;2023-05-29T09:37:16;100920.78;;;21.89;33.18
65997;BME280;52765;52.258;21.052;2023-05-29T09:39:53;100916.00;;;22.10;33.37
65997;BME280;52765;52.258;21.052;2023-05-29T09:42:19;100901.16;;;22.24;32.98
65997;BME280;52765;52.258;21.052;2023-05-29T09:44:49;100918.13;;;22.46;33.50
65997;BME280;52765;52.258;21.052;2023-05-29T09:47:16;100914.91;;;22.56;33.19
65997;BME280;52765;52.258;21.052;2023-05-29T09:49:53;100902.25;;;22.55;32.44
65997;BME280;52765;52.258;21.052;2023-05-29T09:52:20;100907.13;;;22.53;32.11
65997;BME280;52765;52.258;21.052;2023-05-29T09:54:47;100904.06;;;22.36;32.06
65997;BME280;52765;52.258;21.052;2023-05-29T09:57:14;100909.16;;;22.32;32.01
65997;BME280;52765;52.258;21.052;2023-05-29T09:59:43;100908.28;;;22.39;32.03
65997;BME280;52765;52.258;21.052;2023-05-29T10:02:10;100904.50;;;22.33;32.19
65997;BME280;52765;52.258;21.052;2023-05-29T10:04:37;100906.44;;;22.32;32.69
65997;BME280;52765;52.258;21.052;2023-05-29T10:07:09;100909.84;;;22.53;32.52
65997;BME280;52765;52.258;21.052;2023-05-29T10:09:41;100898.38;;;22.63;32.17
65997;BME280;52765;52.258;21.052;2023-05-29T10:12:11;100892.56;;;22.78;31.71
65997;BME280;52765;52.258;21.052;2023-05-29T10:14:38;100894.19;;;22.85;32.05
65997;BME280;52765;52.258;21.052;2023-05-29T10:17:07;100909.09;;;22.96;31.60
65997;BME280;52765;52.258;21.052;2023-05-29T10:19:36;100908.78;;;23.04;31.47
65997;BME280;52765;52.258;21.052;2023-05-29T10:22:03;100903.72;;;23.08;31.30
65997;BME280;52765;52.258;21.052;2023-05-29T10:24:29;100902.66;;;23.09;30.57
65997;BME280;52765;52.258;21.052;2023-05-29T10:26:57;100899.09;;;23.08;30.71
65997;BME280;52765;52.258;21.052;2023-05-29T10:37:14;100898.34;;;23.57;30.34
65997;BME280;52765;52.258;21.052;2023-05-29T10:39:44;100894.13;;;23.54;30.56
65997;BME280;52765;52.258;21.052;2023-05-29T10:42:47;100891.00;;;23.69;31.00
65997;BME280;52765;52.258;21.052;2023-05-29T10:47:55;100889.88;;;24.07;30.18
65997;BME280;52765;52.258;21.052;2023-05-29T10:50:46;100892.63;;;24.07;29.75
65997;BME280;52765;52.258;21.052;2023-05-29T10:53:24;100888.31;;;24.11;29.85
65997;BME280;52765;52.258;21.052;2023-05-29T10:55:50;100878.22;;;24.24;29.67
65997;BME280;52765;52.258;21.052;2023-05-29T10:58:21;100882.63;;;24.55;29.65
65997;BME280;52765;52.258;21.052;2023-05-29T11:00:48;100874.50;;;24.72;29.18
65997;BME280;52765;52.258;21.052;2023-05-29T11:03:17;100873.06;;;24.93;29.23
65997;BME280;52765;52.258;21.052;2023-05-29T11:08:42;100860.00;;;25.12;28.38
65997;BME280;52765;52.258;21.052;2023-05-29T11:11:33;100866.31;;;25.24;28.07
65997;BME280;52765;52.258;21.052;2023-05-29T11:14:06;100865.16;;;25.32;28.32
65997;BME280;52765;52.258;21.052;2023-05-29T11:18:59;100863.72;;;25.06;28.14
65997;BME280;52765;52.258;21.052;2023-05-29T11:24:04;100856.03;;;24.61;28.94
65997;BME280;52765;52.258;21.052;2023-05-29T11:26:31;100863.38;;;24.90;28.36
65997;BME280;52765;52.258;21.052;2023-05-29T11:29:03;100869.22;;;25.06;28.38
65997;BME280;52765;52.258;21.052;2023-05-29T11:31:32;100868.16;;;24.83;28.65
65997;BME280;52765;52.258;21.052;2023-05-29T11:34:03;100858.53;;;24.50;28.86
65997;BME280;52765;52.258;21.052;2023-05-29T11:36:46;100860.41;;;24.38;29.24
65997;BME280;52765;52.258;21.052;2023-05-29T11:39:17;100866.28;;;24.30;29.27
65997;BME280;52765;52.258;21.052;2023-05-29T11:41:50;100858.69;;;24.55;29.10
65997;BME280;52765;52.258;21.052;2023-05-29T11:44:15;100860.84;;;25.01;28.34
65997;BME280;52765;52.258;21.052;2023-05-29T11:46:43;100852.78;;;25.23;27.62
65997;BME280;52765;52.258;21.052;2023-05-29T11:49:12;100854.91;;;25.56;27.37
65997;BME280;52765;52.258;21.052;2023-05-29T11:51:41;100849.41;;;25.85;27.20
65997;BME280;52765;52.258;21.052;2023-05-29T11:54:07;100843.00;;;26.25;26.76
65997;BME280;52765;52.258;21.052;2023-05-29T11:56:32;100848.28;;;26.77;26.35
65997;BME280;52765;52.258;21.052;2023-05-29T11:58:59;100843.00;;;26.76;26.28
65997;BME280;52765;52.258;21.052;2023-05-29T12:01:25;100838.13;;;27.00;26.57
65997;BME280;52765;52.258;21.052;2023-05-29T12:03:52;100839.72;;;27.35;26.37
65997;BME280;52765;52.258;21.052;2023-05-29T12:06:34;100843.00;;;27.76;25.83
65997;BME280;52765;52.258;21.052;2023-05-29T12:09:01;100842.06;;;27.43;25.68
65997;BME280;52765;52.258;21.052;2023-05-29T12:11:28;100843.19;;;27.47;25.73
65997;BME280;52765;52.258;21.052;2023-05-29T12:13:58;100838.13;;;27.39;25.34
65997;BME280;52765;52.258;21.052;2023-05-29T12:16:30;100834.84;;;27.42;25.39
65997;BME280;52765;52.258;21.052;2023-05-29T12:19:04;100828.19;;;27.65;25.37
65997;BME280;52765;52.258;21.052;2023-05-29T12:21:29;100829.22;;;27.81;25.40
65997;BME280;52765;52.258;21.052;2023-05-29T12:23:55;100819.38;;;27.68;25.20
65997;BME280;52765;52.258;21.052;2023-05-29T12:26:24;100818.97;;;27.82;25.24
65997;BME280;52765;52.258;21.052;2023-05-29T12:28:51;100819.66;;;28.21;25.19
65997;BME280;52765;52.258;21.052;2023-05-29T12:31:29;100818.66;;;28.65;24.58
65997;BME280;52765;52.258;21.052;2023-05-29T12:34:08;100817.34;;;28.78;24.49
65997;BME280;52765;52.258;21.052;2023-05-29T12:36:35;100822.44;;;28.96;24.19
65997;BME280;52765;52.258;21.052;2023-05-29T12:39:05;100821.41;;;29.08;23.98
65997;BME280;52765;52.258;21.052;2023-05-29T12:41:34;100816.22;;;28.41;24.32
65997;BME280;52765;52.258;21.052;2023-05-29T12:44:02;100814.81;;;28.39;24.26
65997;BME280;52765;52.258;21.052;2023-05-29T12:49:16;100805.81;;;28.21;24.93
65997;BME280;52765;52.258;21.052;2023-05-29T12:51:43;100813.47;;;28.41;24.55
65997;BME280;52765;52.258;21.052;2023-05-29T12:54:16;100807.63;;;28.38;24.50
65997;BME280;52765;52.258;21.052;2023-05-29T12:56:42;100809.00;;;28.08;24.93
65997;BME280;52765;52.258;21.052;2023-05-29T12:59:12;100804.16;;;27.93;24.95
65997;BME280;52765;52.258;21.052;2023-05-29T13:01:38;100802.16;;;27.88;25.76
65997;BME280;52765;52.258;21.052;2023-05-29T13:04:05;100811.16;;;28.01;26.11
65997;BME280;52765;52.258;21.052;2023-05-29T13:06:42;100791.50;;;28.35;25.52
65997;BME280;52765;52.258;21.052;2023-05-29T13:09:08;100796.56;;;28.43;25.03
65997;BME280;52765;52.258;21.052;2023-05-29T13:11:34;100796.13;;;28.24;25.35
65997;BME280;52765;52.258;21.052;2023-05-29T13:13:59;100792.28;;;27.98;25.95